Time;durP1;ratioP1;P1;durP2;ratioP2;P2;SDS_P1;SDS_P2;PMS_P1;PMS_P2;Temp;Humidity;BMP_temperature;BMP_pressure;BME280_temperature;BME280_humidity;BME280_pressure;Samples;Min_cycle;Max_cycle;Signal;HPM_P1;HPM_P2
2021/12/21 00:01:17;;;;;;;3.08;1.90;;;21.30;47.60;;;;;;5005850;28;20441;-69
2021/12/21 00:03:42;;;;;;;5.57;2.03;;;21.30;47.60;;;;;;5007137;28;20042;-73
2021/12/21 00:06:09;;;;;;;3.35;1.63;;;21.30;47.60;;;;;;5022090;28;20577;-73
2021/12/21 00:08:37;;;;;;;4.40;1.60;;;21.30;47.60;;;;;;5027256;28;20051;-73
2021/12/21 00:11:02;;;;;;;2.88;1.67;;;21.30;47.60;;;;;;5025940;28;20057;-72
2021/12/21 00:16:04;;;;;;;2.47;1.55;;;21.30;47.60;;;;;;5026882;28;20401;-72
2021/12/21 00:21:06;;;;;;;3.22;1.60;;;21.30;47.60;;;;;;5024605;28;20057;-71
2021/12/21 00:23:44;;;;;;;3.45;1.73;;;21.30;47.60;;;;;;5024301;28;20061;-73
2021/12/21 00:26:11;;;;;;;4.55;1.60;;;21.30;47.50;;;;;;5022057;28;20410;-70
2021/12/21 00:28:54;;;;;;;3.45;1.63;;;21.30;47.50;;;;;;5027324;28;20041;-73
2021/12/21 00:31:20;;;;;;;3.30;1.77;;;21.30;47.50;;;;;;5022244;28;20052;-73
2021/12/21 00:33:47;;;;;;;4.35;1.98;;;21.30;47.50;;;;;;5024177;28;20046;-73
2021/12/21 00:36:18;;;;;;;3.45;1.60;;;21.30;47.40;;;;;;5024021;28;20500;-72
2021/12/21 00:38:45;;;;;;;2.90;1.52;;;21.30;47.50;;;;;;5026508;28;20457;-73
2021/12/21 00:41:11;;;;;;;3.20;1.83;;;21.30;47.40;;;;;;5024300;28;20056;-73
2021/12/21 00:43:37;;;;;;;3.72;1.75;;;21.30;47.40;;;;;;5017917;28;20042;-71
2021/12/21 00:46:03;;;;;;;3.53;1.65;;;21.30;47.40;;;;;;5007074;28;20501;-73
2021/12/21 00:48:30;;;;;;;2.53;1.38;;;21.20;47.30;;;;;;5025068;28;20033;-71
2021/12/21 00:50:58;;;;;;;2.67;1.50;;;21.20;47.30;;;;;;5025853;28;20055;-72
2021/12/21 00:53:25;;;;;;;5.85;1.63;;;21.30;47.30;;;;;;5021282;28;20547;-73
2021/12/21 00:55:51;;;;;;;3.20;1.63;;;21.20;47.20;;;;;;5007111;28;20042;-73
2021/12/21 00:58:16;;;;;;;3.03;1.60;;;21.30;47.30;;;;;;5006470;28;20054;-73
2021/12/21 01:00:42;;;;;;;3.92;1.95;;;21.20;47.20;;;;;;5006208;28;20042;-72
2021/12/21 01:03:11;;;;;;;4.18;1.80;;;21.20;47.20;;;;;;5006073;28;20041;-71
2021/12/21 01:05:49;;;;;;;3.05;1.90;;;21.20;47.20;;;;;;5004521;28;20064;-72
2021/12/21 01:08:20;;;;;;;3.58;1.60;;;21.20;47.20;;;;;;5006272;28;20046;-71
2021/12/21 01:18:40;;;;;;;2.85;1.65;;;21.20;47.10;;;;;;5013338;28;20049;-70
2021/12/21 01:21:14;;;;;;;3.17;1.80;;;21.20;47.10;;;;;;5007144;28;20054;-70
2021/12/21 01:26:58;;;;;;;3.17;1.67;;;21.20;47.00;;;;;;5021095;28;20061;-71
2021/12/21 01:29:34;;;;;;;2.72;1.60;;;21.20;47.00;;;;;;5022965;28;20076;-73
2021/12/21 01:32:21;;;;;;;4.38;1.50;;;21.20;47.00;;;;;;5004035;28;20053;-73
2021/12/21 01:34:58;;;;;;;3.63;1.90;;;21.20;47.00;;;;;;5007606;28;20061;-70
2021/12/21 01:37:40;;;;;;;2.55;1.40;;;21.20;46.90;;;;;;5020265;28;20142;-73
2021/12/21 01:40:17;;;;;;;2.60;1.45;;;21.20;46.90;;;;;;5017707;28;20069;-73
2021/12/21 01:50:39;;;;;;;3.00;1.77;;;21.20;46.80;;;;;;4991343;28;20054;-73
2021/12/21 01:53:05;;;;;;;3.65;1.63;;;21.20;46.90;;;;;;5010500;28;20045;-73
2021/12/21 01:55:31;;;;;;;3.38;1.63;;;21.10;46.80;;;;;;5011995;28;20117;-72
2021/12/21 01:57:56;;;;;;;3.47;1.52;;;21.20;46.90;;;;;;5022913;28;20105;-72
2021/12/21 02:00:22;;;;;;;2.35;1.52;;;21.10;46.80;;;;;;5025992;28;20049;-73
2021/12/21 02:02:47;;;;;;;3.70;1.70;;;21.20;46.80;;;;;;5021674;28;20087;-73
2021/12/21 02:05:13;;;;;;;4.03;1.77;;;21.20;46.80;;;;;;5009332;28;20049;-73
2021/12/21 02:07:39;;;;;;;3.00;1.70;;;21.20;46.80;;;;;;5009416;28;20042;-72
2021/12/21 02:10:06;;;;;;;3.53;1.90;;;21.10;46.70;;;;;;5024870;28;20068;-73
2021/12/21 02:12:32;;;;;;;2.60;1.50;;;21.20;46.80;;;;;;5030631;28;20048;-71
2021/12/21 02:15:00;;;;;;;2.15;1.40;;;21.20;46.70;;;;;;5025263;28;20464;-70
2021/12/21 02:23:07;;;;;;;2.33;1.50;;;21.10;46.60;;;;;;5029342;28;20520;-74
2021/12/21 02:28:32;;;;;;;3.05;1.40;;;21.20;46.80;;;;;;5028015;28;20053;-74
2021/12/21 02:30:58;;;;;;;3.63;1.80;;;21.10;46.70;;;;;;5024506;28;20132;-75
2021/12/21 02:33:25;;;;;;;2.20;1.63;;;21.20;46.60;;;;;;5027918;28;20518;-70
2021/12/21 02:35:52;;;;;;;3.67;1.52;;;21.20;46.50;;;;;;5027710;28;20133;-66
2021/12/21 02:38:18;;;;;;;2.30;1.50;;;21.20;46.50;;;;;;5028860;28;20046;-71
2021/12/21 02:40:45;;;;;;;2.70;1.50;;;21.20;46.50;;;;;;5027720;28;20719;-72
2021/12/21 02:43:13;;;;;;;3.65;1.70;;;21.20;46.50;;;;;;5028066;28;20052;-72
2021/12/21 02:45:39;;;;;;;3.03;1.40;;;21.20;46.50;;;;;;5025105;28;20045;-72
2021/12/21 02:48:06;;;;;;;3.60;1.58;;;21.20;46.50;;;;;;5027721;28;20045;-72
2021/12/21 02:50:31;;;;;;;2.78;1.45;;;21.20;46.50;;;;;;5025089;28;20056;-69
2021/12/21 02:52:59;;;;;;;2.40;1.75;;;21.20;46.40;;;;;;5003976;28;20054;-72
2021/12/21 02:55:26;;;;;;;2.72;1.50;;;21.20;46.40;;;;;;5007517;28;20512;-73
2021/12/21 02:57:52;;;;;;;4.45;1.75;;;21.20;46.40;;;;;;5022061;28;20091;-72
2021/12/21 03:00:21;;;;;;;2.95;1.30;;;21.20;46.40;;;;;;5028704;28;20085;-70
2021/12/21 03:02:47;;;;;;;2.67;1.67;;;21.20;46.40;;;;;;5027074;28;20045;-71
2021/12/21 03:05:13;;;;;;;2.83;1.60;;;21.30;46.40;;;;;;5026741;28;20484;-71
2021/12/21 03:10:25;;;;;;;3.30;1.60;;;21.30;46.30;;;;;;5027074;28;20049;-71
2021/12/21 03:15:18;;;;;;;2.55;1.40;;;21.30;46.30;;;;;;5026938;28;20053;-70
2021/12/21 03:17:44;;;;;;;2.05;1.50;;;21.30;46.30;;;;;;5010186;28;20037;-71
2021/12/21 03:20:10;;;;;;;2.97;1.63;;;21.20;46.20;;;;;;5025000;28;20103;-70
2021/12/21 03:22:35;;;;;;;2.20;1.65;;;21.30;46.30;;;;;;5026323;28;20491;-71
2021/12/21 03:25:02;;;;;;;2.63;1.42;;;21.30;46.20;;;;;;5036471;28;20037;-70
2021/12/21 03:27:29;;;;;;;2.75;1.60;;;21.30;46.20;;;;;;5024783;28;20119;-65
2021/12/21 03:29:54;;;;;;;3.38;1.48;;;21.30;46.20;;;;;;5012375;28;20553;-69
2021/12/21 03:32:20;;;;;;;2.10;1.30;;;21.20;46.10;;;;;;5020275;28;20124;-70
2021/12/21 03:34:50;;;;;;;3.15;1.67;;;21.30;46.20;;;;;;5019403;28;20057;-69
2021/12/21 03:37:15;;;;;;;2.33;1.35;;;21.20;47.00;;;;;;5025828;28;20060;-70
2021/12/21 03:39:42;;;;;;;4.15;1.77;;;21.20;46.10;;;;;;5019430;28;20132;-71
2021/12/21 03:42:10;;;;;;;3.28;1.48;;;21.20;46.20;;;;;;5015387;28;20046;-71
2021/12/21 03:44:36;;;;;;;3.25;1.48;;;21.20;46.20;;;;;;5025988;28;20033;-72
2021/12/21 03:47:03;;;;;;;2.17;1.42;;;21.20;46.10;;;;;;5019634;28;20049;-71
2021/12/21 03:52:05;;;;;;;2.25;1.63;;;21.20;46.20;;;;;;5020454;28;20378;-72
2021/12/21 03:54:31;;;;;;;2.40;1.60;;;21.10;46.10;;;;;;5024600;28;20611;-72
2021/12/21 03:56:57;;;;;;;3.22;1.70;;;21.20;46.10;;;;;;5009729;28;20148;-70
2021/12/21 03:59:23;;;;;;;1.83;1.40;;;21.20;46.20;;;;;;5019616;28;20493;-71
2021/12/21 04:01:49;;;;;;;4.13;1.80;;;21.20;46.10;;;;;;5016852;28;20050;-69
2021/12/21 04:04:18;;;;;;;1.98;1.35;;;21.10;46.10;;;;;;5005404;28;20041;-71
2021/12/21 04:06:45;;;;;;;2.10;1.50;;;21.10;46.00;;;;;;5021164;28;20065;-71
2021/12/21 04:09:10;;;;;;;2.63;1.80;;;21.20;46.00;;;;;;5038425;28;20063;-72
2021/12/21 04:11:37;;;;;;;3.60;1.77;;;21.10;46.00;;;;;;5023409;28;20049;-72
2021/12/21 04:14:03;;;;;;;3.55;1.67;;;21.10;46.00;;;;;;5027198;28;20045;-71
2021/12/21 04:16:29;;;;;;;2.35;1.70;;;21.10;46.00;;;;;;5025126;28;20052;-69
2021/12/21 04:18:55;;;;;;;3.53;1.60;;;21.10;46.00;;;;;;5024962;28;20038;-71
2021/12/21 04:21:21;;;;;;;2.83;1.33;;;21.10;46.00;;;;;;5019964;28;20046;-71
2021/12/21 04:23:47;;;;;;;2.83;1.65;;;21.10;45.90;;;;;;5026509;28;20056;-72
2021/12/21 04:26:14;;;;;;;2.50;1.80;;;21.10;45.90;;;;;;5024979;28;20091;-71
2021/12/21 04:28:40;;;;;;;4.53;1.70;;;21.10;45.90;;;;;;5008526;28;20045;-71
2021/12/21 04:31:06;;;;;;;3.47;1.55;;;21.10;45.90;;;;;;5026772;28;20778;-71
2021/12/21 04:33:34;;;;;;;2.53;1.50;;;21.10;45.90;;;;;;5022956;28;20041;-74
2021/12/21 04:36:00;;;;;;;1.95;1.58;;;21.10;45.80;;;;;;5017079;28;20045;-74
2021/12/21 04:38:31;;;;;;;5.05;1.67;;;21.10;45.90;;;;;;5015521;28;20049;-72
2021/12/21 04:41:06;;;;;;;2.75;1.42;;;21.10;45.90;;;;;;5019076;28;20116;-74
2021/12/21 04:43:31;;;;;;;3.45;1.58;;;21.10;45.90;;;;;;5018101;28;20049;-73
2021/12/21 04:45:57;;;;;;;3.53;1.65;;;21.00;45.80;;;;;;5025327;28;20041;-74
2021/12/21 04:48:23;;;;;;;2.65;1.70;;;21.10;45.80;;;;;;5011235;28;20041;-74
2021/12/21 04:50:49;;;;;;;2.85;1.95;;;21.10;45.90;;;;;;5018683;28;20490;-74
2021/12/21 04:53:15;;;;;;;2.85;1.50;;;21.10;45.80;;;;;;5012468;28;20048;-71
2021/12/21 04:55:41;;;;;;;2.83;1.67;;;21.10;45.80;;;;;;5014434;28;20056;-74
2021/12/21 04:58:07;;;;;;;2.88;1.58;;;21.10;45.80;;;;;;5010767;28;20046;-74
2021/12/21 05:00:33;;;;;;;2.53;1.48;;;21.10;45.80;;;;;;4993613;28;20060;-74
2021/12/21 05:02:59;;;;;;;3.05;1.83;;;21.10;45.80;;;;;;5025713;28;20056;-74
2021/12/21 05:05:25;;;;;;;2.35;1.55;;;21.10;45.70;;;;;;5024823;28;20045;-69
2021/12/21 05:08:04;;;;;;;3.15;1.63;;;21.10;45.80;;;;;;5017287;28;20802;-73
2021/12/21 05:10:30;;;;;;;2.80;1.48;;;21.00;45.70;;;;;;5009878;28;20084;-74
2021/12/21 05:12:55;;;;;;;3.03;1.73;;;21.00;45.70;;;;;;5024300;28;20417;-74
2021/12/21 05:15:21;;;;;;;1.90;1.52;;;21.00;45.70;;;;;;5023869;28;20059;-73
2021/12/21 05:17:46;;;;;;;2.70;1.50;;;21.00;45.70;;;;;;5006399;28;20532;-74
2021/12/21 05:20:12;;;;;;;1.90;1.35;;;21.00;45.70;;;;;;5015565;28;20133;-72
2021/12/21 05:22:37;;;;;;;2.13;1.50;;;21.00;45.70;;;;;;5009098;28;20497;-73
2021/12/21 05:25:04;;;;;;;2.30;1.70;;;21.00;45.70;;;;;;5013695;28;20073;-74
2021/12/21 05:27:29;;;;;;;2.53;1.60;;;21.00;45.70;;;;;;5010985;28;20045;-67
2021/12/21 05:29:55;;;;;;;3.20;1.40;;;21.00;45.80;;;;;;5015225;28;20831;-72
2021/12/21 05:32:20;;;;;;;3.22;1.58;;;21.00;45.90;;;;;;5007478;28;20157;-73
2021/12/21 05:34:46;;;;;;;2.05;1.33;;;21.00;46.00;;;;;;5011567;28;20068;-75
2021/12/21 05:37:12;;;;;;;2.50;1.50;;;21.10;46.00;;;;;;5015792;28;20035;-71
2021/12/21 05:39:54;;;;;;;2.17;1.50;;;21.00;46.00;;;;;;5016472;28;20044;-74
2021/12/21 05:42:20;;;;;;;2.17;1.35;;;21.10;46.10;;;;;;5015261;28;20052;-75
2021/12/21 05:44:46;;;;;;;1.98;1.38;;;21.10;46.10;;;;;;5018258;28;20045;-75
2021/12/21 05:47:11;;;;;;;2.35;1.30;;;21.10;46.50;;;;;;5017367;28;20034;-75
2021/12/21 05:49:37;;;;;;;2.83;1.50;;;21.10;46.10;;;;;;5018223;28;20486;-72
2021/12/21 05:52:03;;;;;;;3.25;1.40;;;21.10;46.10;;;;;;5018573;28;20041;-70
2021/12/21 05:54:29;;;;;;;1.90;1.30;;;21.10;46.10;;;;;;5017242;28;20045;-71
2021/12/21 05:56:55;;;;;;;1.98;1.45;;;21.10;46.10;;;;;;5015922;28;20115;-73
2021/12/21 05:59:20;;;;;;;2.13;1.45;;;21.10;46.10;;;;;;5020386;28;20037;-72
2021/12/21 06:01:46;;;;;;;1.98;1.42;;;21.10;46.10;;;;;;5014351;28;20131;-74
2021/12/21 06:04:12;;;;;;;2.03;1.60;;;21.00;46.10;;;;;;5017457;28;20045;-72
2021/12/21 06:06:38;;;;;;;2.00;1.17;;;21.10;46.20;;;;;;5016254;28;20099;-69
2021/12/21 06:09:07;;;;;;;3.25;1.70;;;21.10;46.20;;;;;;5017059;28;20092;-73
2021/12/21 06:11:39;;;;;;;3.85;1.30;;;21.10;46.20;;;;;;4977673;28;1032940;-71
2021/12/21 06:25:21;;;;;;;2.58;1.50;;;21.00;46.20;;;;;;5016155;28;20048;-74
2021/12/21 06:27:24;;;;;;;2.25;1.45;;;21.00;46.20;;;;;;5017844;28;20527;-74
2021/12/21 06:29:49;;;;;;;2.03;1.27;;;21.00;46.20;;;;;;5028433;28;20042;-74
2021/12/21 06:32:15;;;;;;;2.42;1.60;;;21.00;46.10;;;;;;5028262;28;20243;-81
2021/12/21 06:34:41;;;;;;;2.55;1.63;;;21.00;46.10;;;;;;5027345;28;20035;-79
2021/12/21 06:37:09;;;;;;;2.30;1.50;;;21.00;46.10;;;;;;5009523;28;20505;-74
2021/12/21 06:39:35;;;;;;;3.13;1.50;;;21.00;46.00;;;;;;5020475;28;20136;-76
2021/12/21 06:42:01;;;;;;;2.08;1.50;;;21.00;46.10;;;;;;5028592;28;20486;-77
2021/12/21 06:44:28;;;;;;;3.42;1.23;;;21.00;46.10;;;;;;5026913;28;20041;-74
2021/12/21 06:51:10;;;;;;;2.42;1.27;;;21.00;46.00;;;;;;5026606;28;20042;-73
2021/12/21 06:52:39;;;;;;;1.95;1.23;;;21.00;46.00;;;;;;5026047;28;20955;-76
2021/12/21 06:55:06;;;;;;;1.67;1.15;;;21.00;46.00;;;;;;5028795;28;20045;-75
2021/12/21 06:57:32;;;;;;;2.13;1.33;;;21.10;46.00;;;;;;5028778;28;20052;-70
2021/12/21 06:59:58;;;;;;;2.08;1.50;;;21.10;46.00;;;;;;5030983;28;20045;-75
2021/12/21 07:02:24;;;;;;;2.75;1.30;;;21.10;46.00;;;;;;5031775;28;20105;-74
2021/12/21 07:04:49;;;;;;;3.40;1.40;;;21.10;46.00;;;;;;5032700;28;20132;-71
2021/12/21 07:07:17;;;;;;;1.75;1.30;;;21.10;45.90;;;;;;5028456;28;20587;-67
2021/12/21 07:09:46;;;;;;;2.35;1.48;;;21.10;45.90;;;;;;5019172;28;20057;-72
2021/12/21 07:17:48;;;;;;;2.00;1.40;;;21.10;45.90;;;;;;5029691;28;20100;-71
2021/12/21 07:20:26;;;;;;;2.70;1.67;;;21.20;45.90;;;;;;5028724;28;20612;-75
2021/12/21 07:22:52;;;;;;;2.15;1.33;;;21.20;46.70;;;;;;5010692;28;20113;-77
2021/12/21 07:25:18;;;;;;;2.63;1.60;;;21.20;45.90;;;;;;5021405;28;20465;-80
2021/12/21 07:27:44;;;;;;;3.13;1.55;;;21.10;45.80;;;;;;5027573;28;20060;-79
2021/12/21 07:30:10;;;;;;;8.55;1.40;;;21.20;45.70;;;;;;5043565;28;20056;-84
2021/12/21 07:32:36;;;;;;;4.38;1.25;;;21.20;45.70;;;;;;5028778;28;20584;-81
2021/12/21 07:35:03;;;;;;;2.53;1.42;;;21.20;45.60;;;;;;5025876;28;20037;-81
2021/12/21 07:37:29;;;;;;;2.33;1.40;;;21.20;45.50;;;;;;5025574;28;20042;-79
2021/12/21 07:39:55;;;;;;;3.45;1.60;;;21.20;45.30;;;;;;5025297;28;20087;-87
2021/12/21 07:42:22;;;;;;;2.25;1.50;;;21.20;45.30;;;;;;5027910;28;20053;-83
2021/12/21 07:44:48;;;;;;;1.98;1.38;;;21.20;45.20;;;;;;5025963;28;20046;-82
2021/12/21 07:47:15;;;;;;;2.30;1.40;;;21.20;45.10;;;;;;5018676;28;20119;-79
2021/12/21 07:49:41;;;;;;;3.13;1.58;;;21.20;45.10;;;;;;5024728;28;20065;-80
2021/12/21 07:52:07;;;;;;;3.50;1.42;;;21.10;44.90;;;;;;5028682;28;20455;-75
2021/12/21 07:54:34;;;;;;;2.75;1.45;;;21.20;44.90;;;;;;5026824;28;20103;-73
2021/12/21 07:56:59;;;;;;;5.38;1.40;;;21.20;44.80;;;;;;5025903;28;20069;-75
2021/12/21 07:59:25;;;;;;;4.03;1.60;;;21.10;44.80;;;;;;5023995;28;20544;-77
2021/12/21 08:01:52;;;;;;;3.38;1.20;;;21.10;44.90;;;;;;5024062;28;20041;-75
2021/12/21 08:04:18;;;;;;;3.00;1.45;;;21.20;45.00;;;;;;5026953;28;20390;-78
2021/12/21 08:06:47;;;;;;;2.40;1.70;;;21.20;45.10;;;;;;5021019;28;20052;-74
2021/12/21 08:09:13;;;;;;;8.75;1.63;;;21.20;45.10;;;;;;5019296;28;20060;-75
2021/12/21 08:14:04;;;;;;;3.72;1.40;;;21.40;45.00;;;;;;5021548;28;20050;-73
2021/12/21 08:16:31;;;;;;;4.85;1.48;;;21.70;44.60;;;;;;4989468;28;20046;-74
2021/12/21 08:18:57;;;;;;;3.67;1.42;;;21.70;44.60;;;;;;5011809;28;20029;-73
2021/12/21 08:21:25;;;;;;;4.95;1.27;;;21.70;44.60;;;;;;5040692;28;20103;-76
2021/12/21 08:23:51;;;;;;;1.90;1.33;;;21.70;44.60;;;;;;5007721;28;20045;-77
2021/12/21 08:26:17;;;;;;;3.45;1.50;;;21.70;44.70;;;;;;5022769;28;20123;-75
2021/12/21 08:28:42;;;;;;;3.58;1.27;;;21.70;44.80;;;;;;5009374;28;20100;-70
2021/12/21 08:31:10;;;;;;;4.18;1.70;;;21.70;44.90;;;;;;5024905;28;20109;-72
2021/12/21 08:33:37;;;;;;;6.50;1.90;;;21.80;45.00;;;;;;5041968;28;20405;-73
2021/12/21 08:36:04;;;;;;;3.72;2.00;;;21.90;44.90;;;;;;5021639;28;20050;-74
2021/12/21 08:38:31;;;;;;;7.60;2.40;;;22.20;44.80;;;;;;5014006;28;20129;-74
2021/12/21 08:40:59;;;;;;;2.13;1.70;;;22.50;44.30;;;;;;5003824;28;20054;-75
2021/12/21 08:43:26;;;;;;;3.03;1.30;;;22.80;43.90;;;;;;5005287;28;20065;-73
2021/12/21 08:45:52;;;;;;;4.32;1.40;;;23.00;43.50;;;;;;5004931;28;20045;-76
2021/12/21 08:48:19;;;;;;;2.63;1.35;;;22.90;43.40;;;;;;5009244;28;20045;-74
2021/12/21 08:50:46;;;;;;;3.65;1.30;;;22.80;43.60;;;;;;5015863;28;20042;-71
2021/12/21 08:53:13;;;;;;;3.20;1.48;;;22.70;43.80;;;;;;5017096;28;20037;-76
2021/12/21 08:55:40;;;;;;;3.25;1.48;;;22.50;44.00;;;;;;5021617;28;20046;-75
2021/12/21 08:58:06;;;;;;;5.88;1.45;;;22.50;44.30;;;;;;5010667;28;20042;-79
2021/12/21 09:00:32;;;;;;;2.30;1.40;;;22.40;44.50;;;;;;5023105;28;20052;-76
2021/12/21 09:02:58;;;;;;;3.22;1.10;;;22.40;44.80;;;;;;5025780;28;20041;-73
2021/12/21 09:05:27;;;;;;;6.60;1.20;;;22.30;44.90;;;;;;5023851;28;20601;-72
2021/12/21 09:07:54;;;;;;;2.53;1.20;;;22.30;45.00;;;;;;5021983;28;20405;-72
2021/12/21 09:10:22;;;;;;;3.45;1.40;;;22.30;45.10;;;;;;5018353;28;20042;-76
2021/12/21 09:12:48;;;;;;;3.75;1.10;;;22.30;45.30;;;;;;5014166;28;20049;-74
2021/12/21 09:15:15;;;;;;;2.97;1.20;;;22.20;45.20;;;;;;5009617;28;20497;-79
2021/12/21 09:17:41;;;;;;;3.35;1.40;;;22.20;45.30;;;;;;5023625;28;20046;-78
2021/12/21 09:20:09;;;;;;;4.30;1.40;;;22.20;45.30;;;;;;5016094;28;20489;-78
2021/12/21 09:22:35;;;;;;;5.70;1.23;;;22.20;45.60;;;;;;5023278;28;20045;-74
2021/12/21 09:25:01;;;;;;;8.70;1.67;;;22.20;46.00;;;;;;5013538;28;20636;-78
2021/12/21 09:27:27;;;;;;;4.55;1.30;;;22.10;46.30;;;;;;5013731;28;20041;-81
2021/12/21 09:29:53;;;;;;;4.90;1.38;;;22.20;46.60;;;;;;5014956;28;20128;-77
2021/12/21 09:32:19;;;;;;;6.28;1.55;;;22.10;46.70;;;;;;5032142;28;20096;-74
2021/12/21 09:34:46;;;;;;;8.85;1.70;;;22.20;47.00;;;;;;5013691;28;20052;-76
2021/12/21 09:37:19;;;;;;;3.50;1.17;;;22.10;47.00;;;;;;5020009;28;20081;-79
2021/12/21 09:39:52;;;;;;;3.85;1.42;;;22.10;47.20;;;;;;5017727;28;20037;-79
2021/12/21 09:42:30;;;;;;;7.13;1.30;;;22.10;47.30;;;;;;5013774;28;20041;-78
2021/12/21 09:44:57;;;;;;;6.25;1.27;;;22.10;47.40;;;;;;5018582;28;20574;-76
2021/12/21 09:47:23;;;;;;;5.78;1.60;;;22.10;47.40;;;;;;5011639;28;20048;-72
2021/12/21 09:49:49;;;;;;;3.03;1.60;;;22.10;48.30;;;;;;5014131;28;20042;-80
2021/12/21 09:52:21;;;;;;;4.85;1.30;;;22.00;47.50;;;;;;5009879;28;20061;-75
2021/12/21 09:54:47;;;;;;;4.68;1.45;;;22.00;47.60;;;;;;5014253;28;20081;-75
2021/12/21 09:57:16;;;;;;;5.63;1.48;;;22.00;47.70;;;;;;5015738;28;20125;-73
2021/12/21 09:59:43;;;;;;;5.00;1.42;;;22.00;47.80;;;;;;5019396;28;20034;-77
2021/12/21 10:02:10;;;;;;;3.10;1.42;;;22.00;47.90;;;;;;5020977;28;20510;-75
2021/12/21 10:04:57;;;;;;;3.50;1.33;;;22.00;47.80;;;;;;5013109;28;20033;-78
2021/12/21 10:07:24;;;;;;;5.32;1.27;;;22.00;48.00;;;;;;5012653;28;20057;-76
2021/12/21 10:10:00;;;;;;;5.72;1.30;;;22.00;48.00;;;;;;5019571;28;20511;-78
2021/12/21 10:12:30;;;;;;;5.25;1.50;;;22.00;48.00;;;;;;5015973;28;20247;-75
2021/12/21 10:15:18;;;;;;;4.15;1.60;;;21.90;48.10;;;;;;5016469;28;20048;-77
2021/12/21 10:17:57;;;;;;;3.95;1.75;;;21.90;48.10;;;;;;4992945;28;20046;-75
2021/12/21 10:20:46;;;;;;;6.72;1.60;;;21.90;48.10;;;;;;5031832;28;20046;-71
2021/12/21 10:23:16;;;;;;;4.25;1.33;;;21.90;48.30;;;;;;5013248;28;20045;-73
2021/12/21 10:25:50;;;;;;;6.05;1.50;;;21.90;48.30;;;;;;5017859;28;20045;-78
2021/12/21 10:28:26;;;;;;;3.78;1.30;;;21.90;48.30;;;;;;5016260;28;20080;-76
2021/12/21 10:30:53;;;;;;;4.38;1.38;;;21.90;48.40;;;;;;5014739;28;20058;-74
2021/12/21 10:33:20;;;;;;;4.65;1.33;;;21.90;48.40;;;;;;5019139;28;20045;-77
2021/12/21 10:35:46;;;;;;;4.60;1.40;;;21.90;48.50;;;;;;5017792;28;20042;-77
2021/12/21 10:38:22;;;;;;;3.53;1.50;;;21.80;48.40;;;;;;5020507;28;20068;-82
2021/12/21 10:40:49;;;;;;;3.05;1.52;;;21.80;48.40;;;;;;5015876;28;20060;-79
2021/12/21 10:43:15;;;;;;;2.63;1.15;;;21.90;48.40;;;;;;5016138;28;20069;-74
2021/12/21 10:45:43;;;;;;;4.80;1.58;;;21.80;48.50;;;;;;5017240;28;20069;-67
2021/12/21 10:48:16;;;;;;;13.35;1.67;;;21.80;48.50;;;;;;5007842;28;20053;-75
2021/12/21 10:50:46;;;;;;;5.70;1.33;;;21.80;49.40;;;;;;5008258;28;20034;-73
2021/12/21 10:53:26;;;;;;;6.63;1.50;;;21.80;48.60;;;;;;5018767;28;20508;-74
2021/12/21 10:56:00;;;;;;;4.10;1.42;;;21.80;48.50;;;;;;5024074;28;20045;-75
2021/12/21 10:58:28;;;;;;;7.50;1.70;;;21.70;48.20;;;;;;5027320;28;20083;-81
2021/12/21 11:00:58;;;;;;;6.40;1.30;;;21.70;48.00;;;;;;5026022;28;20039;-81
2021/12/21 11:03:57;;;;;;;4.68;1.45;;;21.70;48.00;;;;;;5026905;28;20517;-78
2021/12/21 11:06:34;;;;;;;;;;;21.70;47.90;;;;;;5007471;28;20042;-78
2021/12/21 11:09:04;;;;;;;2.92;1.42;;;21.70;47.80;;;;;;5020283;28;19920;-78
2021/12/21 11:11:34;;;;;;;9.38;1.60;;;21.70;47.90;;;;;;5021624;28;20140;-76
2021/12/21 11:13:59;;;;;;;2.72;1.27;;;21.60;47.80;;;;;;5033830;28;20081;-73
2021/12/21 11:16:35;;;;;;;4.43;1.40;;;21.60;47.80;;;;;;5038596;28;20076;-80
2021/12/21 11:19:02;;;;;;;3.03;1.48;;;21.60;47.90;;;;;;5016250;28;21024;-77
2021/12/21 11:21:29;;;;;;;3.85;1.55;;;21.60;47.90;;;;;;5031011;28;20065;-79
2021/12/21 11:23:55;;;;;;;3.40;1.27;;;21.60;47.90;;;;;;5043168;28;20057;-78
2021/12/21 11:26:25;;;;;;;3.92;1.60;;;21.60;48.00;;;;;;5037456;28;20054;-75
2021/12/21 11:28:51;;;;;;;3.50;1.38;;;21.60;48.00;;;;;;5020996;28;20037;-81
2021/12/21 11:31:17;;;;;;;3.13;1.30;;;21.60;48.00;;;;;;5034375;28;20157;-81
2021/12/21 11:33:46;;;;;;;3.58;1.60;;;21.60;47.90;;;;;;5029496;28;20049;-77
2021/12/21 11:39:02;;;;;;;5.88;1.40;;;21.70;48.00;;;;;;5027119;28;20053;-73
2021/12/21 11:41:29;;;;;;;4.72;1.25;;;21.70;48.00;;;;;;5014421;28;20069;-76
2021/12/21 11:44:05;;;;;;;3.35;1.27;;;21.60;48.00;;;;;;5012631;28;20050;-75
2021/12/21 11:46:51;;;;;;;6.30;1.40;;;21.70;47.90;;;;;;5015108;28;20512;-70
2021/12/21 11:49:23;;;;;;;3.40;1.23;;;21.70;47.70;;;;;;5017913;28;20049;-76
2021/12/21 11:51:49;;;;;;;3.28;1.40;;;21.70;48.40;;;;;;5017110;28;20491;-75
2021/12/21 11:54:18;;;;;;;3.83;1.40;;;21.70;47.60;;;;;;5027392;28;20048;-74
2021/12/21 11:56:44;;;;;;;4.35;1.38;;;21.70;47.40;;;;;;5013111;28;20149;-77
2021/12/21 11:59:09;;;;;;;3.72;1.30;;;21.60;47.30;;;;;;5015165;28;20734;-75
2021/12/21 12:01:35;;;;;;;5.88;1.38;;;21.60;47.20;;;;;;5017385;28;20045;-68
2021/12/21 12:04:08;;;;;;;4.55;1.40;;;21.60;47.20;;;;;;5002943;28;20041;-71
2021/12/21 12:06:51;;;;;;;4.72;1.35;;;21.60;47.20;;;;;;5016479;28;20111;-81
2021/12/21 12:09:33;;;;;;;7.00;1.48;;;21.60;47.10;;;;;;5017943;28;20143;-83
2021/12/21 12:12:10;;;;;;;5.90;1.30;;;21.60;47.10;;;;;;5014961;28;20061;-80
2021/12/21 12:14:37;;;;;;;7.60;1.55;;;21.60;47.10;;;;;;5017678;28;20054;-74
2021/12/21 12:17:16;;;;;;;3.88;1.23;;;21.60;47.10;;;;;;5014451;28;20493;-80
2021/12/21 12:19:51;;;;;;;7.63;1.40;;;21.50;47.00;;;;;;5016093;28;20049;-77
2021/12/21 12:22:17;;;;;;;4.13;1.45;;;21.50;47.00;;;;;;5022454;28;20078;-81
2021/12/21 12:24:55;;;;;;;6.30;1.98;;;21.50;47.00;;;;;;5009800;28;20528;-82
2021/12/21 12:27:23;;;;;;;2.60;1.30;;;21.60;47.10;;;;;;5023288;28;20045;-81
2021/12/21 12:29:50;;;;;;;;;;;21.60;47.20;;;;;;5015004;28;20065;-83
2021/12/21 12:32:18;;;;;;;5.63;1.35;;;21.60;47.10;;;;;;5015330;28;19987;-78
2021/12/21 12:34:44;;;;;;;6.07;1.58;;;21.60;47.10;;;;;;5017020;28;20087;-78
2021/12/21 12:37:20;;;;;;;5.03;1.90;;;21.50;47.00;;;;;;5017368;28;20046;-83
2021/12/21 12:39:51;;;;;;;6.10;1.60;;;21.60;46.90;;;;;;5011507;28;20099;-72
2021/12/21 12:42:27;;;;;;;4.28;1.25;;;21.50;46.70;;;;;;5011480;28;20054;-77
2021/12/21 12:45:05;;;;;;;7.13;1.60;;;21.50;46.60;;;;;;5015614;28;20056;-77
2021/12/21 12:47:31;;;;;;;11.27;2.08;;;21.50;46.60;;;;;;5007865;28;20180;-78
2021/12/21 12:49:57;;;;;;;4.70;1.65;;;21.50;46.60;;;;;;5022831;28;20148;-76
2021/12/21 12:52:31;;;;;;;5.95;1.65;;;21.50;46.60;;;;;;5024808;28;20121;-80
2021/12/21 12:55:04;;;;;;;4.75;1.30;;;21.50;46.50;;;;;;5025004;28;20079;-76
2021/12/21 12:57:38;;;;;;;6.03;1.50;;;21.40;46.40;;;;;;5025226;28;20053;-80
2021/12/21 13:00:21;;;;;;;4.20;1.40;;;21.40;46.40;;;;;;5023758;28;20547;-79
2021/12/21 13:03:00;;;;;;;4.78;1.30;;;21.40;46.30;;;;;;5025502;28;20505;-72
2021/12/21 13:05:53;;;;;;;6.18;1.40;;;21.50;46.30;;;;;;5025707;28;20052;-80
2021/12/21 13:08:22;;;;;;;4.53;1.23;;;21.40;46.30;;;;;;5024986;28;20056;-73
2021/12/21 13:10:53;;;;;;;6.05;1.50;;;21.30;46.40;;;;;;5024461;28;20084;-80
2021/12/21 13:13:20;;;;;;;7.35;1.70;;;21.30;46.30;;;;;;5023239;28;20049;-79
2021/12/21 13:15:48;;;;;;;5.07;1.23;;;21.30;46.30;;;;;;5025107;28;20041;-80
2021/12/21 13:18:17;;;;;;;;;;;21.30;46.30;;;;;;5024392;28;20529;-79
2021/12/21 13:20:45;;;;;;;3.90;1.40;;;21.30;46.30;;;;;;5025209;28;19980;-79
2021/12/21 13:23:22;;;;;;;7.00;1.42;;;21.30;46.40;;;;;;5025403;28;20469;-79
2021/12/21 13:26:02;;;;;;;7.23;1.50;;;21.20;46.40;;;;;;5024036;28;20646;-76
2021/12/21 13:28:30;;;;;;;6.00;1.20;;;21.20;46.40;;;;;;5024550;28;20337;-78
2021/12/21 13:30:57;;;;;;;3.65;1.40;;;21.20;46.40;;;;;;5024026;28;20030;-79
2021/12/21 13:33:29;;;;;;;5.55;1.45;;;21.20;46.40;;;;;;5026110;28;20094;-79
2021/12/21 13:35:58;;;;;;;2.83;1.00;;;21.20;46.40;;;;;;5024855;28;20041;-76
2021/12/21 13:38:25;;;;;;;3.28;1.30;;;21.20;46.50;;;;;;5024617;28;20037;-79
2021/12/21 13:41:06;;;;;;;3.97;1.60;;;21.20;46.40;;;;;;5025690;28;20080;-80
2021/12/21 13:43:33;;;;;;;3.90;1.20;;;21.20;46.40;;;;;;5024777;28;20057;-80
2021/12/21 13:46:00;;;;;;;5.45;1.40;;;21.20;46.50;;;;;;5023929;28;20056;-78
2021/12/21 13:48:27;;;;;;;4.70;1.23;;;21.10;46.40;;;;;;5003542;28;20567;-79
2021/12/21 13:50:53;;;;;;;2.35;1.17;;;21.10;46.50;;;;;;5005188;28;20117;-78
2021/12/21 13:53:19;;;;;;;4.13;1.33;;;21.10;46.40;;;;;;5025080;28;20113;-80
2021/12/21 13:55:50;;;;;;;3.60;1.27;;;21.10;46.50;;;;;;5010193;28;20046;-74
2021/12/21 13:58:17;;;;;;;1.75;1.25;;;21.10;46.50;;;;;;5006984;28;20060;-79
2021/12/21 14:00:50;;;;;;;3.63;1.10;;;21.10;46.50;;;;;;5020620;28;20053;-72